Portada
METAR-TAF:

METAR-TAF

Aeroports :

Phillip Goldston

Belize City, Belize

latitud: 17-32N, longitud: 088-18W, altitud: 5 m

Observació

L'informe es va fer fa 14 minuts, a les 20:00 UTC
Vent 10 kt del Est/Nord-Est
Temperatura 31°C
Humitat 71%
Pressió 1014 hPa
Visibilitat 10 km o més
Núvols disperses a una alçada de 2200 ft

METAR: MZBZ 202000Z 07010KT 9999 SCT022 31/25 A2994 Q1014 NOSIG RMK HZY DIST SHWRS-W/SW CB-SW

Hora: 14:14 (20:14 UTC)

Pronòstic

L'informe es va fer fa 5 hores i 14 minuts, a les 15:00 UTC
Pronòstic vàlid del 20 a les 18 UTC al 21 a les 18 UTC
Vent 8 kt del Est
Visibilitat 10 km o més
Núvols disperses a una alçada de 2400 ft
Probabilitat 30% :
Temporalment
l' 21 a les 16 UTC al 21 a les 18 UTC
Visibilitat: 8000 m
Núvols disperses a una alçada de 1200 ft, Cumulonimbus.
Cel ennuvolat a una alçada de 3500 ft
tempesta

TAF: MZBZ 201500Z 2018/2118 10008KT 9999 SCT024 PROB30 TEMPO 2116/2118 8000 TS SCT012CB BKN035

Observacions i pronòstics meteorològics de més de 4000 aeroports (METAR i TAF).

Les estacions disponibles són els punts grocs i vermells al mapa.

Posi el ratolí al punt desitjat per veure el nom de l'estació.

Feu clic per veure les observacions i els pronòstics meteorològics.

Per canviar el mapa: feu clic els botons verds amb una creu de color negre per apropar; al botó verd amb un guió per allunyar la imatge; o en les fletxes verdes per a mapes adjacents.


METAR-TAF: